Time;durP1;ratioP1;P1;durP2;ratioP2;P2;SDS_P1;SDS_P2;PMS_P1;PMS_P2;Temp;Humidity;BMP_temperature;BMP_pressure;BME280_temperature;BME280_humidity;BME280_pressure;Samples;Min_cycle;Max_cycle;Signal;HPM_P1;HPM_P2
2023/07/24 00:00:08;;;;;;;15.25;6.03;;;;;;;;;;5008244;28;20057;-72
2023/07/24 00:02:34;;;;;;;17.50;6.78;;;;;;;;;;4991919;28;20105;-72
2023/07/24 00:05:00;;;;;;;17.83;7.05;;;;;;;;;;4991484;28;20540;-72
2023/07/24 00:07:27;;;;;;;16.63;6.93;;;;;;;;;;4992985;28;20085;-72
2023/07/24 00:09:53;;;;;;;13.98;6.38;;;;;;;;;;4991165;28;20450;-72
2023/07/24 00:12:19;;;;;;;16.73;6.75;;;;;;;;;;4992815;28;20057;-72
2023/07/24 00:14:45;;;;;;;13.57;6.60;;;;;;;;;;4991348;28;20053;-74
2023/07/24 00:17:11;;;;;;;15.18;7.00;;;;;;;;;;4988677;28;20486;-72
2023/07/24 00:19:37;;;;;;;14.80;6.70;;;;;;;;;;4991342;28;20050;-71
2023/07/24 00:22:03;;;;;;;18.80;6.60;;;;;;;;;;4991114;28;20042;-72
2023/07/24 00:24:30;;;;;;;16.33;6.28;;;;;;;;;;4991476;28;20050;-72
2023/07/24 00:26:56;;;;;;;18.45;7.07;;;;;;;;;;4995369;28;20391;-72
2023/07/24 00:29:22;;;;;;;18.98;6.32;;;;;;;;;;5010855;28;20512;-72
2023/07/24 00:31:48;;;;;;;11.35;6.00;;;;;;;;;;5011459;28;20050;-72
2023/07/24 00:34:14;;;;;;;17.48;7.35;;;;;;;;;;5012107;28;20042;-72
2023/07/24 00:36:40;;;;;;;17.35;7.13;;;;;;;;;;5008699;28;20120;-72
2023/07/24 00:39:06;;;;;;;9.02;5.82;;;;;;;;;;5011546;28;20038;-72
2023/07/24 00:41:33;;;;;;;16.17;6.72;;;;;;;;;;5002874;28;20060;-72
2023/07/24 00:43:59;;;;;;;14.30;6.47;;;;;;;;;;4992218;28;20054;-72
2023/07/24 00:46:25;;;;;;;15.13;5.88;;;;;;;;;;5009302;28;20073;-72
2023/07/24 00:48:52;;;;;;;11.77;6.30;;;;;;;;;;5010853;28;20042;-71
2023/07/24 00:51:18;;;;;;;13.35;6.60;;;;;;;;;;5006739;28;20056;-72
2023/07/24 00:53:44;;;;;;;14.10;6.05;;;;;;;;;;5009917;28;20080;-72
2023/07/24 00:56:10;;;;;;;15.05;6.63;;;;;;;;;;5012144;28;20121;-72
2023/07/24 00:58:38;;;;;;;15.43;6.60;;;;;;;;;;5009883;28;20053;-72
2023/07/24 01:01:04;;;;;;;16.88;6.57;;;;;;;;;;5010807;28;20389;-72
2023/07/24 01:03:35;;;;;;;15.68;6.78;;;;;;;;;;5009738;28;20176;-72
2023/07/24 01:06:04;;;;;;;16.17;6.90;;;;;;;;;;5007503;28;20139;-72
2023/07/24 01:08:30;;;;;;;13.95;6.40;;;;;;;;;;5007904;28;20111;-72
2023/07/24 01:11:02;;;;;;;16.23;6.38;;;;;;;;;;5010508;28;20494;-72
2023/07/24 01:13:32;;;;;;;17.00;6.78;;;;;;;;;;5005773;28;20057;-72
2023/07/24 01:16:05;;;;;;;14.88;6.38;;;;;;;;;;5009383;28;20045;-72
2023/07/24 01:18:31;;;;;;;18.77;6.18;;;;;;;;;;4994890;28;20086;-72
2023/07/24 01:20:59;;;;;;;18.40;6.22;;;;;;;;;;5005911;28;20045;-71
2023/07/24 01:23:44;;;;;;;14.68;6.28;;;;;;;;;;5008954;28;20485;-72
2023/07/24 01:26:10;;;;;;;20.17;7.88;;;;;;;;;;5007797;28;20531;-71
2023/07/24 01:28:36;;;;;;;13.52;6.28;;;;;;;;;;5009805;28;20049;-72
2023/07/24 01:31:02;;;;;;;17.08;6.40;;;;;;;;;;5010345;28;20050;-72
2023/07/24 01:33:28;;;;;;;15.77;6.47;;;;;;;;;;5011242;28;20053;-72
2023/07/24 01:35:56;;;;;;;21.20;6.53;;;;;;;;;;5009118;28;20038;-72
2023/07/24 01:38:22;;;;;;;16.92;6.32;;;;;;;;;;5011913;28;20390;-72
2023/07/24 01:40:49;;;;;;;15.02;6.65;;;;;;;;;;5010163;28;20099;-72
2023/07/24 01:43:15;;;;;;;18.90;7.32;;;;;;;;;;5009594;28;20069;-71
2023/07/24 01:45:41;;;;;;;18.27;7.10;;;;;;;;;;5010583;28;20069;-72
2023/07/24 01:48:07;;;;;;;16.45;7.25;;;;;;;;;;4996504;28;20088;-72
2023/07/24 01:50:33;;;;;;;15.23;6.45;;;;;;;;;;4998891;28;20065;-72
2023/07/24 01:52:59;;;;;;;20.20;7.30;;;;;;;;;;5010592;28;20056;-72
2023/07/24 01:55:25;;;;;;;14.75;6.28;;;;;;;;;;5008699;28;20064;-72
2023/07/24 01:57:51;;;;;;;20.77;6.80;;;;;;;;;;5010201;28;20499;-72
2023/07/24 02:00:17;;;;;;;18.77;7.20;;;;;;;;;;5009007;28;20560;-72
2023/07/24 02:02:43;;;;;;;14.32;6.72;;;;;;;;;;5010534;28;20085;-72
2023/07/24 02:05:09;;;;;;;23.70;7.28;;;;;;;;;;5000790;28;20128;-72
2023/07/24 02:07:35;;;;;;;15.50;6.45;;;;;;;;;;5013981;28;20049;-72
2023/07/24 02:10:01;;;;;;;22.52;7.22;;;;;;;;;;5013358;28;20446;-72
2023/07/24 02:12:27;;;;;;;19.02;6.85;;;;;;;;;;5011332;28;20136;-72
2023/07/24 02:14:54;;;;;;;16.75;6.90;;;;;;;;;;5014172;28;20184;-73
2023/07/24 02:17:20;;;;;;;15.25;6.60;;;;;;;;;;5011065;28;20428;-72
2023/07/24 02:19:46;;;;;;;17.30;7.20;;;;;;;;;;5012394;28;20576;-72
2023/07/24 02:22:12;;;;;;;19.60;7.20;;;;;;;;;;4994399;28;21198;-72
2023/07/24 02:24:38;;;;;;;17.67;7.32;;;;;;;;;;5013463;28;20038;-72
2023/07/24 02:27:06;;;;;;;14.40;6.65;;;;;;;;;;5011114;28;20450;-72
2023/07/24 02:29:32;;;;;;;15.98;6.82;;;;;;;;;;5013788;28;20389;-72
2023/07/24 02:31:58;;;;;;;21.77;7.53;;;;;;;;;;5012471;28;20046;-72
2023/07/24 02:34:26;;;;;;;17.70;7.47;;;;;;;;;;5013164;28;20065;-72
2023/07/24 02:36:55;;;;;;;20.65;7.68;;;;;;;;;;5013829;28;20096;-73
2023/07/24 02:39:21;;;;;;;15.30;6.50;;;;;;;;;;5012990;28;20081;-73
2023/07/24 02:41:50;;;;;;;20.92;7.07;;;;;;;;;;5014175;28;20049;-72
2023/07/24 02:44:16;;;;;;;14.60;6.30;;;;;;;;;;5009996;28;20045;-73
2023/07/24 02:46:42;;;;;;;22.92;7.45;;;;;;;;;;5012285;28;20045;-72
2023/07/24 02:49:08;;;;;;;17.05;6.80;;;;;;;;;;5013029;28;20121;-73
2023/07/24 02:51:34;;;;;;;17.55;6.53;;;;;;;;;;5008145;28;20132;-72
2023/07/24 02:54:00;;;;;;;15.13;6.55;;;;;;;;;;5002445;28;20101;-73
2023/07/24 02:56:26;;;;;;;18.48;6.40;;;;;;;;;;5011838;28;20046;-73
2023/07/24 02:58:52;;;;;;;17.30;6.57;;;;;;;;;;5028637;28;20045;-73
2023/07/24 03:01:18;;;;;;;17.17;6.93;;;;;;;;;;5009693;28;20038;-73
2023/07/24 03:03:44;;;;;;;18.02;6.65;;;;;;;;;;5013965;28;20092;-73
2023/07/24 03:06:10;;;;;;;21.42;7.30;;;;;;;;;;5011241;28;20076;-73
2023/07/24 03:08:36;;;;;;;21.70;6.90;;;;;;;;;;5012926;28;20050;-73
2023/07/24 03:11:05;;;;;;;21.42;6.85;;;;;;;;;;5010864;28;20476;-73
2023/07/24 03:13:31;;;;;;;14.93;7.38;;;;;;;;;;5012347;28;20038;-72
2023/07/24 03:15:58;;;;;;;20.13;7.30;;;;;;;;;;5012165;28;20548;-73
2023/07/24 03:18:24;;;;;;;17.58;6.88;;;;;;;;;;5013356;28;20473;-73
2023/07/24 03:20:50;;;;;;;16.33;6.28;;;;;;;;;;5010897;28;20056;-73
2023/07/24 03:23:16;;;;;;;18.00;6.88;;;;;;;;;;5010941;28;20050;-73
2023/07/24 03:25:43;;;;;;;21.33;6.97;;;;;;;;;;5011018;28;20057;-73
2023/07/24 03:28:09;;;;;;;18.60;6.45;;;;;;;;;;5008827;28;20054;-73
2023/07/24 03:30:35;;;;;;;20.48;7.10;;;;;;;;;;5007796;28;20137;-73
2023/07/24 03:33:01;;;;;;;15.38;6.28;;;;;;;;;;5009620;28;20537;-72
2023/07/24 03:35:27;;;;;;;23.35;8.05;;;;;;;;;;5011364;28;20498;-73
2023/07/24 03:37:53;;;;;;;19.38;7.57;;;;;;;;;;5010517;28;20179;-73
2023/07/24 03:40:19;;;;;;;18.25;7.50;;;;;;;;;;5008779;28;20117;-73
2023/07/24 03:42:45;;;;;;;19.08;7.60;;;;;;;;;;5012448;28;20046;-73
2023/07/24 03:45:11;;;;;;;17.00;6.82;;;;;;;;;;5012177;28;20042;-73
2023/07/24 03:47:37;;;;;;;20.92;8.00;;;;;;;;;;5012146;28;20042;-73
2023/07/24 03:50:03;;;;;;;18.75;6.88;;;;;;;;;;5012759;28;20042;-73
2023/07/24 03:52:29;;;;;;;22.17;7.97;;;;;;;;;;5012808;28;20046;-73
2023/07/24 03:54:55;;;;;;;21.25;7.63;;;;;;;;;;5009012;28;20056;-73
2023/07/24 03:57:21;;;;;;;18.60;7.30;;;;;;;;;;5010538;28;20041;-73
2023/07/24 03:59:47;;;;;;;16.63;7.40;;;;;;;;;;5011564;28;20049;-73
2023/07/24 04:02:14;;;;;;;22.67;8.00;;;;;;;;;;5011067;28;20046;-73
2023/07/24 04:04:40;;;;;;;20.38;7.18;;;;;;;;;;5011067;28;20080;-73
2023/07/24 04:07:06;;;;;;;19.08;7.13;;;;;;;;;;5012041;28;20046;-73
2023/07/24 04:09:32;;;;;;;19.42;7.93;;;;;;;;;;5003612;28;20042;-73
2023/07/24 04:11:58;;;;;;;18.65;7.15;;;;;;;;;;4993612;28;20054;-73
2023/07/24 04:14:24;;;;;;;15.90;6.70;;;;;;;;;;4999684;28;20121;-73
2023/07/24 04:16:50;;;;;;;14.85;7.13;;;;;;;;;;5011225;28;20049;-73
2023/07/24 04:19:16;;;;;;;14.93;6.78;;;;;;;;;;5011642;28;20052;-73
2023/07/24 04:21:42;;;;;;;17.77;7.78;;;;;;;;;;5011228;28;20057;-73
2023/07/24 04:24:08;;;;;;;17.65;7.15;;;;;;;;;;5008077;28;20052;-73
2023/07/24 04:26:34;;;;;;;21.42;7.55;;;;;;;;;;5012500;28;20050;-73
2023/07/24 04:29:00;;;;;;;14.10;7.20;;;;;;;;;;5014178;28;20049;-73
2023/07/24 04:31:26;;;;;;;23.52;8.15;;;;;;;;;;5009123;28;20111;-73
2023/07/24 04:33:52;;;;;;;18.17;7.72;;;;;;;;;;4976223;28;20705;-73
2023/07/24 04:36:18;;;;;;;17.05;7.13;;;;;;;;;;5010749;28;20473;-73
2023/07/24 04:38:46;;;;;;;20.05;7.85;;;;;;;;;;5009975;28;20084;-73
2023/07/24 04:41:12;;;;;;;23.85;7.78;;;;;;;;;;5008410;28;20053;-72
2023/07/24 04:43:38;;;;;;;19.60;7.60;;;;;;;;;;4994039;28;20052;-72
2023/07/24 04:46:05;;;;;;;20.08;7.80;;;;;;;;;;5011657;28;20485;-73
2023/07/24 04:48:31;;;;;;;23.52;7.70;;;;;;;;;;5011569;28;20041;-72
2023/07/24 04:50:57;;;;;;;27.48;7.75;;;;;;;;;;5009556;28;20053;-73
2023/07/24 04:53:23;;;;;;;15.65;7.38;;;;;;;;;;5005608;28;20513;-72
2023/07/24 04:55:49;;;;;;;19.98;7.43;;;;;;;;;;4986691;28;20097;-72
2023/07/24 04:58:15;;;;;;;17.73;7.53;;;;;;;;;;4974755;28;20054;-73
2023/07/24 05:00:41;;;;;;;18.02;7.18;;;;;;;;;;4985277;28;20073;-73
2023/07/24 05:03:10;;;;;;;23.10;7.20;;;;;;;;;;4994151;28;20066;-72
2023/07/24 05:05:37;;;;;;;21.88;7.45;;;;;;;;;;4994261;28;20054;-72
2023/07/24 05:08:03;;;;;;;18.83;6.95;;;;;;;;;;5012963;28;20107;-72
2023/07/24 05:10:29;;;;;;;18.08;7.97;;;;;;;;;;5013465;28;20477;-73
2023/07/24 05:12:56;;;;;;;15.70;6.63;;;;;;;;;;5022397;28;20050;-72
2023/07/24 05:15:22;;;;;;;22.10;8.25;;;;;;;;;;4991183;28;20100;-73
2023/07/24 05:17:48;;;;;;;20.55;7.55;;;;;;;;;;5011368;28;20054;-73
2023/07/24 05:20:15;;;;;;;26.65;8.18;;;;;;;;;;5010004;28;20042;-72
2023/07/24 05:22:41;;;;;;;26.73;11.45;;;;;;;;;;5013175;28;20099;-72
2023/07/24 05:25:07;;;;;;;18.42;7.93;;;;;;;;;;5001499;28;20050;-72
2023/07/24 05:27:33;;;;;;;21.95;8.30;;;;;;;;;;4999039;28;20050;-72
2023/07/24 05:29:59;;;;;;;22.30;7.95;;;;;;;;;;4999311;28;20082;-72
2023/07/24 05:32:25;;;;;;;20.33;7.55;;;;;;;;;;5006438;28;20060;-72
2023/07/24 05:34:51;;;;;;;19.02;7.43;;;;;;;;;;5009599;28;20607;-72
2023/07/24 05:37:17;;;;;;;19.35;7.18;;;;;;;;;;5008714;28;20054;-72
2023/07/24 05:39:43;;;;;;;23.02;8.02;;;;;;;;;;5014895;28;20052;-73
2023/07/24 05:42:10;;;;;;;16.00;6.38;;;;;;;;;;5015571;28;20046;-72
2023/07/24 05:44:37;;;;;;;20.40;7.50;;;;;;;;;;5013806;28;20168;-72
2023/07/24 05:47:03;;;;;;;14.07;5.78;;;;;;;;;;5012875;28;20064;-72
2023/07/24 05:49:29;;;;;;;16.52;7.05;;;;;;;;;;5002320;28;20137;-72
2023/07/24 05:51:56;;;;;;;18.23;7.60;;;;;;;;;;5009756;28;20049;-72
2023/07/24 05:54:22;;;;;;;16.55;6.78;;;;;;;;;;4995708;28;20054;-72
2023/07/24 05:56:49;;;;;;;24.85;8.23;;;;;;;;;;4993809;28;20055;-72
2023/07/24 05:59:15;;;;;;;18.95;7.15;;;;;;;;;;4995813;28;20038;-72
2023/07/24 06:01:41;;;;;;;14.52;7.05;;;;;;;;;;5002388;28;20486;-72
2023/07/24 06:04:07;;;;;;;14.70;6.70;;;;;;;;;;4995726;28;20096;-72
2023/07/24 06:06:33;;;;;;;20.17;7.80;;;;;;;;;;5008484;28;20073;-72
2023/07/24 06:08:59;;;;;;;19.88;7.18;;;;;;;;;;5008075;28;20050;-72
2023/07/24 06:11:26;;;;;;;16.63;7.82;;;;;;;;;;5014100;28;20045;-72
2023/07/24 06:13:53;;;;;;;20.42;7.40;;;;;;;;;;5014172;28;20050;-72
2023/07/24 06:16:25;;;;;;;20.15;7.75;;;;;;;;;;5013583;28;20041;-72
2023/07/24 06:18:51;;;;;;;18.27;6.70;;;;;;;;;;5012754;28;20393;-71
2023/07/24 06:21:17;;;;;;;21.65;7.38;;;;;;;;;;5013375;28;20569;-72
2023/07/24 06:23:43;;;;;;;19.38;7.75;;;;;;;;;;5012923;28;20107;-72
2023/07/24 06:26:09;;;;;;;19.73;8.00;;;;;;;;;;5012312;28;20038;-72
2023/07/24 06:28:35;;;;;;;24.83;7.57;;;;;;;;;;5011401;28;20493;-72
2023/07/24 06:31:04;;;;;;;15.05;7.53;;;;;;;;;;5013352;28;20508;-71
2023/07/24 06:33:30;;;;;;;17.83;7.55;;;;;;;;;;5014697;28;20050;-72
2023/07/24 06:35:56;;;;;;;19.90;6.88;;;;;;;;;;5010646;28;20038;-72
2023/07/24 06:38:22;;;;;;;18.10;7.30;;;;;;;;;;5013969;28;20445;-72
2023/07/24 06:40:48;;;;;;;17.40;7.35;;;;;;;;;;5013739;28;20425;-72
2023/07/24 06:43:14;;;;;;;16.55;7.60;;;;;;;;;;5012486;28;20042;-72
2023/07/24 06:45:40;;;;;;;13.85;6.47;;;;;;;;;;5013255;28;20042;-72
2023/07/24 06:48:06;;;;;;;16.65;7.38;;;;;;;;;;5013431;28;20038;-72
2023/07/24 06:50:34;;;;;;;16.40;6.85;;;;;;;;;;5010965;28;20478;-72
2023/07/24 06:53:00;;;;;;;15.32;7.20;;;;;;;;;;5011340;28;20053;-72
2023/07/24 06:55:26;;;;;;;17.90;7.18;;;;;;;;;;5013488;28;20042;-72
2023/07/24 06:57:55;;;;;;;16.05;6.40;;;;;;;;;;5011410;28;20048;-73
2023/07/24 07:00:21;;;;;;;18.55;7.28;;;;;;;;;;5011711;28;20057;-72
2023/07/24 07:02:47;;;;;;;18.13;7.45;;;;;;;;;;4996965;28;20158;-73
2023/07/24 07:05:13;;;;;;;16.23;6.95;;;;;;;;;;5006246;28;20058;-72
2023/07/24 07:07:39;;;;;;;22.83;7.97;;;;;;;;;;5009387;28;20050;-72
2023/07/24 07:10:06;;;;;;;15.85;6.72;;;;;;;;;;5009976;28;20056;-72
2023/07/24 07:12:32;;;;;;;13.95;6.68;;;;;;;;;;5012891;28;20136;-72
2023/07/24 07:15:04;;;;;;;18.15;7.40;;;;;;;;;;5012654;28;20042;-72
2023/07/24 07:17:30;;;;;;;15.02;6.85;;;;;;;;;;5008954;28;20442;-72
2023/07/24 07:20:01;;;;;;;19.00;7.07;;;;;;;;;;5012823;28;20045;-73
2023/07/24 07:22:43;;;;;;;17.83;6.65;;;;;;;;;;5011545;28;20136;-72
2023/07/24 07:25:10;;;;;;;14.32;7.13;;;;;;;;;;5012330;28;20068;-72
2023/07/24 07:27:36;;;;;;;11.25;6.82;;;;;;;;;;4993317;28;20141;-72
2023/07/24 07:30:03;;;;;;;17.65;6.68;;;;;;;;;;5001710;28;20129;-72
2023/07/24 07:32:29;;;;;;;11.77;6.10;;;;;;;;;;5011496;28;20055;-72
2023/07/24 07:34:55;;;;;;;9.32;5.00;;;;;;;;;;5007684;28;20128;-72
2023/07/24 07:37:21;;;;;;;12.82;6.60;;;;;;;;;;4998798;28;20172;-72
2023/07/24 07:39:47;;;;;;;10.38;6.47;;;;;;;;;;5012152;28;20042;-72
2023/07/24 07:42:13;;;;;;;9.43;6.35;;;;;;;;;;5012199;28;20049;-72
2023/07/24 07:44:39;;;;;;;13.55;6.63;;;;;;;;;;5011836;28;20044;-73
2023/07/24 07:47:06;;;;;;;14.55;6.60;;;;;;;;;;5009261;28;20050;-73
2023/07/24 07:49:32;;;;;;;9.20;6.32;;;;;;;;;;5006806;28;20054;-72
2023/07/24 07:51:58;;;;;;;8.00;6.72;;;;;;;;;;5011873;28;20520;-72
2023/07/24 07:54:24;;;;;;;8.30;6.50;;;;;;;;;;5011281;28;20128;-73
2023/07/24 07:56:50;;;;;;;7.18;6.47;;;;;;;;;;5011595;28;20081;-72
2023/07/24 07:59:16;;;;;;;7.72;6.43;;;;;;;;;;5010485;28;20045;-73
2023/07/24 08:01:42;;;;;;;8.95;6.50;;;;;;;;;;5010875;28;20049;-72
2023/07/24 08:04:08;;;;;;;7.47;6.07;;;;;;;;;;5010723;28;20441;-73
2023/07/24 08:06:34;;;;;;;6.82;6.13;;;;;;;;;;5011759;28;20161;-73
2023/07/24 08:09:00;;;;;;;7.18;6.00;;;;;;;;;;5012241;28;20383;-73
2023/07/24 08:11:26;;;;;;;7.65;6.60;;;;;;;;;;5004784;28;20050;-72
2023/07/24 08:13:52;;;;;;;6.90;6.20;;;;;;;;;;5008694;28;20060;-73
2023/07/24 08:16:18;;;;;;;6.75;5.90;;;;;;;;;;5011278;28;20571;-72
2023/07/24 08:18:47;;;;;;;6.00;5.40;;;;;;;;;;5011035;28;20042;-72
2023/07/24 08:21:14;;;;;;;7.30;5.22;;;;;;;;;;5007788;28;20506;-73
2023/07/24 08:23:40;;;;;;;5.57;5.07;;;;;;;;;;5009525;28;20041;-73
2023/07/24 08:26:07;;;;;;;7.55;5.70;;;;;;;;;;5008710;28;20474;-73
2023/07/24 08:28:36;;;;;;;8.90;5.22;;;;;;;;;;5009259;28;20058;-73
2023/07/24 08:31:02;;;;;;;6.13;5.35;;;;;;;;;;5010177;28;20057;-72
2023/07/24 08:33:28;;;;;;;6.25;5.28;;;;;;;;;;5011232;28;20498;-72
2023/07/24 08:36:02;;;;;;;6.88;5.78;;;;;;;;;;5008500;28;20050;-72
2023/07/24 08:38:28;;;;;;;6.93;5.38;;;;;;;;;;5010121;28;20053;-72
2023/07/24 08:41:04;;;;;;;6.20;5.60;;;;;;;;;;5011713;28;20049;-72
2023/07/24 08:43:31;;;;;;;7.05;5.38;;;;;;;;;;4990459;28;20120;-72
2023/07/24 08:45:57;;;;;;;7.85;5.38;;;;;;;;;;5010055;28;20041;-72
2023/07/24 08:48:24;;;;;;;6.10;5.15;;;;;;;;;;5010577;28;20829;-72
2023/07/24 08:50:51;;;;;;;8.00;5.68;;;;;;;;;;5009820;28;20052;-72
2023/07/24 08:53:18;;;;;;;7.50;4.70;;;;;;;;;;5008859;28;20544;-72
2023/07/24 08:55:45;;;;;;;7.15;5.50;;;;;;;;;;5009075;28;20335;-72
2023/07/24 08:58:11;;;;;;;6.38;5.45;;;;;;;;;;5012093;28;20405;-72
2023/07/24 09:00:37;;;;;;;6.35;5.32;;;;;;;;;;5008419;28;20042;-72
2023/07/24 09:03:03;;;;;;;8.70;5.07;;;;;;;;;;5002877;28;20132;-72
2023/07/24 09:05:29;;;;;;;6.45;5.85;;;;;;;;;;5009585;28;20045;-72
2023/07/24 09:07:55;;;;;;;6.90;6.00;;;;;;;;;;5007026;28;20034;-72
2023/07/24 09:10:25;;;;;;;7.47;5.90;;;;;;;;;;5023080;28;20052;-72
2023/07/24 09:12:51;;;;;;;8.45;6.03;;;;;;;;;;5009789;28;20482;-73
2023/07/24 09:15:17;;;;;;;6.57;5.43;;;;;;;;;;5008032;28;20057;-72
2023/07/24 09:17:53;;;;;;;5.78;5.10;;;;;;;;;;5000682;28;20054;-72
2023/07/24 09:20:20;;;;;;;6.72;5.63;;;;;;;;;;5011467;28;20046;-72
2023/07/24 09:22:52;;;;;;;11.68;5.75;;;;;;;;;;5011941;28;20048;-72
2023/07/24 09:25:18;;;;;;;5.68;4.82;;;;;;;;;;5012892;28;20054;-72
2023/07/24 09:27:45;;;;;;;7.70;5.43;;;;;;;;;;5011732;28;20061;-72
2023/07/24 09:30:14;;;;;;;6.43;5.82;;;;;;;;;;5015022;28;20056;-72
2023/07/24 09:32:41;;;;;;;5.32;4.82;;;;;;;;;;5009832;28;20548;-72
2023/07/24 09:35:17;;;;;;;8.13;5.40;;;;;;;;;;5009789;28;20097;-72
2023/07/24 09:37:44;;;;;;;6.25;5.65;;;;;;;;;;5010503;28;20134;-73
2023/07/24 09:40:10;;;;;;;6.65;5.90;;;;;;;;;;5012262;28;20049;-73
2023/07/24 09:42:37;;;;;;;7.43;5.55;;;;;;;;;;5007756;28;20041;-73
2023/07/24 09:45:03;;;;;;;5.85;5.25;;;;;;;;;;5006339;28;20062;-73
2023/07/24 09:47:30;;;;;;;7.00;5.20;;;;;;;;;;5008049;28;20064;-73
2023/07/24 09:49:56;;;;;;;6.65;5.47;;;;;;;;;;5009725;28;20042;-73
2023/07/24 09:52:22;;;;;;;6.38;5.53;;;;;;;;;;5013034;28;20136;-73
2023/07/24 09:55:07;;;;;;;7.03;5.45;;;;;;;;;;5011011;28;20089;-73
2023/07/24 09:57:33;;;;;;;5.82;5.20;;;;;;;;;;5014868;28;20432;-73
2023/07/24 10:00:00;;;;;;;6.88;6.05;;;;;;;;;;5010727;28;20093;-73
2023/07/24 10:02:26;;;;;;;5.97;5.20;;;;;;;;;;5005389;28;20116;-73
2023/07/24 10:04:52;;;;;;;6.00;5.20;;;;;;;;;;5008250;28;20042;-73
2023/07/24 10:07:21;;;;;;;7.13;5.38;;;;;;;;;;4995831;28;20050;-73
2023/07/24 10:09:48;;;;;;;6.38;5.05;;;;;;;;;;5011230;28;20073;-73
2023/07/24 10:12:16;;;;;;;6.47;5.20;;;;;;;;;;5006671;28;20124;-73
2023/07/24 10:14:42;;;;;;;5.65;4.63;;;;;;;;;;5000666;28;20084;-73
2023/07/24 10:17:08;;;;;;;6.53;5.35;;;;;;;;;;5006532;28;20092;-73
2023/07/24 10:19:42;;;;;;;6.25;5.30;;;;;;;;;;5011656;28;20096;-72
2023/07/24 10:22:10;;;;;;;6.68;5.05;;;;;;;;;;5012893;28;20049;-73
2023/07/24 10:24:36;;;;;;;5.35;4.85;;;;;;;;;;5012842;28;20042;-73
2023/07/24 10:27:03;;;;;;;5.95;5.10;;;;;;;;;;5009112;28;20068;-73
2023/07/24 10:29:29;;;;;;;6.18;5.10;;;;;;;;;;5011015;28;20069;-73
2023/07/24 10:31:55;;;;;;;5.10;4.45;;;;;;;;;;5013419;28;20152;-73
2023/07/24 10:34:22;;;;;;;5.63;5.05;;;;;;;;;;5011546;28;20077;-73
2023/07/24 10:36:48;;;;;;;5.47;4.57;;;;;;;;;;5013298;28;20379;-73
2023/07/24 10:39:15;;;;;;;4.75;4.25;;;;;;;;;;5013122;28;20046;-73
2023/07/24 10:41:41;;;;;;;4.97;4.38;;;;;;;;;;5011590;28;20504;-73
2023/07/24 10:44:07;;;;;;;5.30;3.60;;;;;;;;;;5010004;28;20041;-72
2023/07/24 10:46:42;;;;;;;5.05;4.55;;;;;;;;;;5012058;28;20062;-72
2023/07/24 10:49:09;;;;;;;4.72;4.05;;;;;;;;;;5003903;28;20077;-72
2023/07/24 10:51:37;;;;;;;4.30;3.58;;;;;;;;;;5013927;28;20136;-73
2023/07/24 10:54:04;;;;;;;4.05;3.53;;;;;;;;;;5009835;28;20079;-73
2023/07/24 10:56:30;;;;;;;3.25;2.70;;;;;;;;;;5013066;28;20057;-74
2023/07/24 10:58:56;;;;;;;3.15;2.88;;;;;;;;;;5008992;28;20037;-74
2023/07/24 11:01:23;;;;;;;3.42;3.13;;;;;;;;;;5009917;28;20390;-73
2023/07/24 11:03:50;;;;;;;2.75;2.55;;;;;;;;;;5005504;28;20398;-73
2023/07/24 11:06:17;;;;;;;2.80;2.60;;;;;;;;;;5007208;28;20042;-74
2023/07/24 11:08:51;;;;;;;2.55;2.35;;;;;;;;;;5011741;28;20042;-73
2023/07/24 11:11:18;;;;;;;2.55;2.13;;;;;;;;;;5012674;28;20095;-73
2023/07/24 11:13:44;;;;;;;3.08;2.33;;;;;;;;;;5010691;28;20131;-73
2023/07/24 11:16:10;;;;;;;2.67;2.00;;;;;;;;;;5009507;28;20045;-73
2023/07/24 11:18:51;;;;;;;4.43;1.90;;;;;;;;;;5006457;28;20042;-73
2023/07/24 11:21:17;;;;;;;3.72;2.20;;;;;;;;;;5005022;28;20046;-73
2023/07/24 11:23:48;;;;;;;3.35;2.38;;;;;;;;;;5011878;28;20050;-73
2023/07/24 11:26:14;;;;;;;7.15;3.80;;;;;;;;;;5012469;28;20509;-73
2023/07/24 11:28:41;;;;;;;2.05;1.90;;;;;;;;;;5012055;28;20054;-73
2023/07/24 11:31:07;;;;;;;2.45;2.00;;;;;;;;;;5010346;28;20057;-73
2023/07/24 11:33:34;;;;;;;2.90;1.77;;;;;;;;;;5010522;28;20085;-73
2023/07/24 11:36:00;;;;;;;2.53;2.00;;;;;;;;;;5000682;28;20057;-73
2023/07/24 11:38:26;;;;;;;2.92;1.90;;;;;;;;;;4999244;28;20059;-73
2023/07/24 11:40:58;;;;;;;2.67;1.85;;;;;;;;;;5010155;28;20046;-73
2023/07/24 11:43:25;;;;;;;2.75;1.70;;;;;;;;;;5013514;28;20053;-72
2023/07/24 11:45:53;;;;;;;4.47;2.20;;;;;;;;;;5009355;28;20108;-73
2023/07/24 11:48:23;;;;;;;7.30;2.78;;;;;;;;;;5012610;28;20046;-73
2023/07/24 11:50:54;;;;;;;5.90;2.00;;;;;;;;;;5011636;28;20042;-73
2023/07/24 11:53:27;;;;;;;4.53;2.13;;;;;;;;;;5006888;28;20284;-73
2023/07/24 11:55:54;;;;;;;3.88;2.58;;;;;;;;;;5008659;28;20128;-74
2023/07/24 11:58:21;;;;;;;5.90;2.63;;;;;;;;;;5013011;28;20486;-73
2023/07/24 12:00:48;;;;;;;3.33;2.17;;;;;;;;;;5011463;28;20042;-73
2023/07/24 12:03:15;;;;;;;5.93;2.40;;;;;;;;;;5012042;28;20046;-73
2023/07/24 12:05:42;;;;;;;2.72;2.03;;;;;;;;;;5008202;28;20034;-73
2023/07/24 12:08:08;;;;;;;5.68;2.15;;;;;;;;;;5010567;28;20126;-73
2023/07/24 12:10:36;;;;;;;5.25;2.25;;;;;;;;;;5011878;28;20042;-73
2023/07/24 12:13:02;;;;;;;4.45;1.83;;;;;;;;;;5009508;28;20493;-73
2023/07/24 12:15:28;;;;;;;5.05;2.60;;;;;;;;;;5012134;28;20102;-73
2023/07/24 12:17:56;;;;;;;4.22;2.20;;;;;;;;;;5010504;28;20041;-73
2023/07/24 12:20:23;;;;;;;8.10;2.60;;;;;;;;;;4997864;28;20371;-73
2023/07/24 12:22:49;;;;;;;5.28;2.30;;;;;;;;;;4995050;28;20034;-73
2023/07/24 12:25:18;;;;;;;6.60;2.30;;;;;;;;;;5010005;28;20046;-73
2023/07/24 12:27:44;;;;;;;6.07;2.30;;;;;;;;;;5008827;28;20133;-73
2023/07/24 12:30:10;;;;;;;6.68;2.53;;;;;;;;;;5012089;28;20052;-73
2023/07/24 12:32:36;;;;;;;5.22;2.45;;;;;;;;;;5012370;28;20061;-73
2023/07/24 12:35:03;;;;;;;4.65;2.40;;;;;;;;;;5009888;28;20498;-73
2023/07/24 12:37:29;;;;;;;6.80;2.30;;;;;;;;;;5008084;28;20102;-73
2023/07/24 12:39:55;;;;;;;4.45;2.20;;;;;;;;;;4992421;28;20046;-73
2023/07/24 12:42:21;;;;;;;7.68;2.85;;;;;;;;;;5004515;28;20050;-73
2023/07/24 12:44:47;;;;;;;5.10;2.13;;;;;;;;;;5010432;28;20038;-72
2023/07/24 12:47:14;;;;;;;4.95;2.65;;;;;;;;;;5010204;28;20099;-73
2023/07/24 12:49:40;;;;;;;3.22;2.20;;;;;;;;;;5026026;28;20104;-73
2023/07/24 12:52:06;;;;;;;5.43;2.10;;;;;;;;;;5012238;28;20394;-73
2023/07/24 12:54:32;;;;;;;7.13;2.97;;;;;;;;;;5004290;28;20046;-73
2023/07/24 12:56:58;;;;;;;5.03;2.58;;;;;;;;;;4998091;28;20077;-73
2023/07/24 12:59:24;;;;;;;5.35;2.35;;;;;;;;;;4992031;28;20046;-73
2023/07/24 13:01:50;;;;;;;6.95;2.67;;;;;;;;;;5005571;28;20081;-73
2023/07/24 13:04:16;;;;;;;6.28;2.53;;;;;;;;;;5004690;28;20088;-73
2023/07/24 13:06:42;;;;;;;6.97;2.55;;;;;;;;;;5010008;28;20046;-73
2023/07/24 13:09:08;;;;;;;4.68;2.60;;;;;;;;;;5007595;28;20555;-73
2023/07/24 13:11:34;;;;;;;7.57;2.58;;;;;;;;;;5009441;28;20517;-73
2023/07/24 13:14:00;;;;;;;7.35;2.67;;;;;;;;;;5009606;28;20421;-73
2023/07/24 13:16:27;;;;;;;8.05;2.95;;;;;;;;;;5004565;28;20108;-72
2023/07/24 13:18:53;;;;;;;5.97;2.92;;;;;;;;;;5008648;28;20140;-72
2023/07/24 13:21:19;;;;;;;3.08;2.40;;;;;;;;;;5008323;28;20042;-73
2023/07/24 13:23:45;;;;;;;6.93;2.70;;;;;;;;;;5008048;28;20141;-73
2023/07/24 13:26:12;;;;;;;9.02;3.10;;;;;;;;;;4997710;28;20401;-72
2023/07/24 13:28:39;;;;;;;4.13;3.05;;;;;;;;;;5009035;28;20145;-73
2023/07/24 13:31:15;;;;;;;7.25;2.97;;;;;;;;;;5005763;28;20129;-73
2023/07/24 13:33:41;;;;;;;8.30;3.00;;;;;;;;;;5010444;28;20129;-73
2023/07/24 13:36:07;;;;;;;8.82;2.83;;;;;;;;;;5003407;28;20038;-72
2023/07/24 13:38:33;;;;;;;8.48;3.13;;;;;;;;;;5008370;28;20062;-73
2023/07/24 13:40:59;;;;;;;11.13;2.90;;;;;;;;;;5009348;28;20056;-73
2023/07/24 13:43:25;;;;;;;9.20;3.05;;;;;;;;;;5011706;28;20068;-73
2023/07/24 13:45:53;;;;;;;6.68;3.00;;;;;;;;;;5005524;28;20049;-72
2023/07/24 13:48:20;;;;;;;9.10;3.10;;;;;;;;;;5009823;28;20041;-72
2023/07/24 13:50:46;;;;;;;6.85;3.00;;;;;;;;;;5009764;28;20118;-73
2023/07/24 13:53:12;;;;;;;8.27;3.38;;;;;;;;;;5020216;28;20046;-72
2023/07/24 13:55:38;;;;;;;9.00;3.40;;;;;;;;;;5010103;28;20038;-72
2023/07/24 13:58:04;;;;;;;7.88;3.45;;;;;;;;;;4999661;28;20397;-72
2023/07/24 14:00:30;;;;;;;6.65;3.05;;;;;;;;;;5010669;28;20561;-73
2023/07/24 14:02:56;;;;;;;6.88;3.08;;;;;;;;;;5012894;28;20104;-72
2023/07/24 14:05:22;;;;;;;7.97;3.10;;;;;;;;;;5006136;28;20454;-73
2023/07/24 14:07:48;;;;;;;7.20;3.10;;;;;;;;;;5015124;28;20050;-73
2023/07/24 14:10:14;;;;;;;8.35;3.08;;;;;;;;;;5013819;28;20046;-73
2023/07/24 14:12:40;;;;;;;5.10;2.83;;;;;;;;;;5012284;28;20042;-73
2023/07/24 14:15:07;;;;;;;6.25;2.88;;;;;;;;;;5013160;28;20397;-73
2023/07/24 14:17:34;;;;;;;9.02;2.90;;;;;;;;;;5012853;28;20049;-72
2023/07/24 14:20:00;;;;;;;6.75;2.90;;;;;;;;;;5013455;28;20069;-72
2023/07/24 14:22:26;;;;;;;7.85;3.30;;;;;;;;;;5012718;28;20355;-72
2023/07/24 14:24:52;;;;;;;9.50;3.60;;;;;;;;;;5013946;28;20480;-72
2023/07/24 14:27:19;;;;;;;9.07;2.95;;;;;;;;;;5010356;28;20160;-72
2023/07/24 14:29:45;;;;;;;7.18;2.78;;;;;;;;;;5013307;28;20050;-72
2023/07/24 14:32:11;;;;;;;8.05;2.80;;;;;;;;;;5010739;28;20045;-73